createdAt,value
2018-04-27T00:00:45.016Z,88.80
2018-04-27T00:05:48.284Z,90.10
2018-04-27T00:10:51.551Z,80.70
2018-04-27T00:15:54.783Z,74.20
2018-04-27T00:20:58.058Z,85.50
2018-04-27T00:26:01.300Z,90.10
2018-04-27T00:31:05.324Z,88.50
2018-04-27T00:36:08.572Z,88.40
2018-04-27T00:41:11.839Z,78.90
2018-04-27T00:46:15.091Z,72.50
2018-04-27T00:51:18.331Z,82.00
2018-04-27T00:56:21.601Z,88.80
2018-04-27T01:01:24.841Z,83.70
2018-04-27T01:06:28.154Z,72.40
2018-04-27T01:11:32.096Z,72.60
2018-04-27T01:16:35.340Z,74.90
2018-04-27T01:21:38.588Z,81.40
2018-04-27T01:26:41.868Z,87.30
2018-04-27T01:31:45.120Z,87.30
2018-04-27T01:36:48.364Z,87.40
2018-04-27T01:41:51.613Z,86.90
2018-04-27T01:46:56.531Z,87.20
2018-04-27T01:51:59.805Z,87.40
2018-04-27T01:57:03.062Z,86.60
2018-04-27T02:02:06.328Z,87.00
2018-04-27T02:07:09.650Z,86.50
2018-04-27T02:12:12.911Z,87.40
2018-04-27T02:17:16.176Z,87.30
2018-04-27T02:22:19.424Z,87.50
2018-04-27T02:27:22.677Z,88.00
2018-04-27T02:32:25.935Z,87.30
2018-04-27T02:37:29.187Z,89.20
2018-04-27T02:42:33.234Z,87.40
2018-04-27T02:47:36.477Z,87.40
2018-04-27T02:52:40.620Z,88.20
2018-04-27T02:57:43.903Z,86.80
2018-04-27T03:02:47.154Z,86.20
2018-04-27T03:07:50.433Z,87.60
2018-04-27T03:12:53.680Z,88.90
2018-04-27T03:17:56.956Z,89.00
2018-04-27T03:23:00.208Z,88.00
2018-04-27T03:28:03.463Z,88.30
2018-04-27T03:33:06.722Z,86.20
2018-04-27T03:38:09.971Z,87.40
2018-04-27T03:43:13.271Z,84.50
2018-04-27T03:48:16.527Z,86.40
2018-04-27T03:53:19.764Z,88.50
2018-04-27T03:58:23.072Z,90.00
2018-04-27T04:03:38.249Z,85.10
2018-04-27T04:08:41.551Z,87.50
2018-04-27T04:13:44.831Z,87.50
2018-04-27T04:18:48.083Z,87.50
2018-04-27T04:23:51.330Z,87.80
2018-04-27T04:28:54.597Z,87.80
2018-04-27T04:33:57.872Z,88.10
2018-04-27T04:39:02.736Z,87.50
2018-04-27T04:44:06.768Z,87.00
2018-04-27T04:49:10.027Z,87.30
2018-04-27T04:54:13.285Z,86.20
2018-04-27T04:59:16.768Z,84.80
2018-04-27T05:04:20.032Z,82.20
2018-04-27T05:09:23.305Z,81.60
2018-04-27T05:14:26.551Z,80.20
2018-04-27T05:19:29.799Z,78.90
2018-04-27T05:24:33.047Z,77.30
2018-04-27T05:29:36.357Z,76.80
2018-04-27T05:34:40.379Z,73.60
2018-04-27T05:39:43.634Z,74.30
2018-04-27T05:44:46.888Z,74.20
2018-04-27T05:49:50.908Z,74.70
2018-04-27T05:54:55.014Z,74.10
2018-04-27T05:59:58.247Z,74.20
2018-04-27T06:05:01.514Z,72.50
2018-04-27T06:10:04.918Z,70.10
2018-04-27T06:15:08.168Z,68.70
2018-04-27T06:20:11.432Z,67.90
2018-04-27T06:25:14.727Z,69.40
2018-04-27T06:30:17.986Z,66.30
2018-04-27T06:35:22.016Z,60.40
2018-04-27T06:40:25.282Z,60.50
2018-04-27T06:45:28.564Z,60.10
2018-04-27T06:50:31.833Z,59.40
2018-04-27T06:55:35.101Z,61.00
2018-04-27T07:00:38.367Z,60.70
2018-04-27T07:05:42.609Z,59.20
2018-04-27T07:10:45.983Z,57.40
2018-04-27T07:15:49.248Z,56.00
2018-04-27T07:20:52.532Z,55.70
2018-04-27T07:25:55.980Z,53.30
2018-04-27T07:30:59.169Z,52.90
2018-04-27T07:36:02.440Z,49.00
2018-04-27T07:41:06.475Z,48.90
2018-04-27T07:46:09.726Z,49.40
2018-04-27T07:51:13.011Z,48.10
2018-04-27T07:56:16.264Z,47.60
2018-04-27T08:01:19.532Z,47.00
2018-04-27T08:06:22.817Z,45.90
2018-04-27T08:11:26.110Z,42.70
2018-04-27T08:16:29.323Z,42.70
2018-04-27T08:21:33.351Z,43.40
2018-04-27T08:26:36.604Z,43.40
2018-04-27T08:31:40.624Z,41.60
2018-04-27T08:36:43.888Z,41.50
2018-04-27T08:41:47.136Z,43.60
2018-04-27T08:46:50.407Z,40.10
2018-04-27T08:51:54.414Z,40.50
2018-04-27T08:56:57.672Z,40.40
2018-04-27T09:02:00.912Z,39.30
2018-04-27T09:07:04.167Z,42.60
2018-04-27T09:12:07.427Z,38.70
2018-04-27T09:17:10.752Z,38.70
2018-04-27T09:22:14.009Z,36.80
2018-04-27T09:27:17.258Z,37.10
2018-04-27T09:32:20.514Z,37.80
2018-04-27T09:37:23.758Z,34.90
2018-04-27T09:42:27.032Z,35.30
2018-04-27T09:47:31.600Z,37.10
2018-04-27T09:52:34.875Z,37.00
2018-04-27T09:57:38.129Z,40.10
2018-04-27T10:02:41.381Z,39.40
2018-04-27T10:07:44.639Z,36.40
2018-04-27T10:12:47.938Z,39.10
2018-04-27T10:17:51.202Z,33.90
2018-04-27T10:22:55.215Z,36.50
2018-04-27T10:27:58.519Z,36.40
2018-04-27T10:33:01.752Z,35.10
2018-04-27T10:38:05.788Z,35.30
2018-04-27T10:43:09.057Z,34.60
2018-04-27T10:48:12.279Z,30.70
2018-04-27T10:53:16.283Z,30.50
2018-04-27T10:58:19.531Z,28.60
2018-04-27T11:03:23.626Z,31.90
2018-04-27T11:08:26.839Z,31.80
2018-04-27T11:13:30.178Z,30.20
2018-04-27T11:18:33.443Z,30.50
2018-04-27T11:23:36.695Z,28.50
2018-04-27T11:28:39.973Z,28.10
2018-04-27T11:33:43.208Z,28.00
2018-04-27T11:38:46.472Z,26.00
2018-04-27T11:43:49.731Z,24.50
2018-04-27T11:48:52.988Z,24.80
2018-04-27T11:53:56.352Z,30.50
2018-04-27T11:58:59.666Z,26.50
2018-04-27T12:04:03.679Z,27.60
2018-04-27T12:09:06.967Z,27.50
2018-04-27T12:14:10.295Z,26.20
2018-04-27T12:19:13.551Z,27.50
2018-04-27T12:24:16.882Z,28.20
2018-04-27T12:29:20.831Z,25.80
2018-04-27T12:34:24.862Z,27.20
2018-04-27T12:39:28.885Z,30.00
2018-04-27T12:44:32.149Z,29.90
2018-04-27T12:49:35.402Z,26.60
2018-04-27T12:54:39.441Z,27.10
2018-04-27T12:59:42.700Z,27.00
2018-04-27T13:04:45.955Z,26.00
2018-04-27T13:09:49.222Z,26.40
2018-04-27T13:14:52.528Z,26.50
2018-04-27T13:19:56.575Z,28.60
2018-04-27T13:24:59.825Z,27.00
2018-04-27T13:30:03.162Z,28.50
2018-04-27T13:35:07.111Z,29.80
2018-04-27T13:40:10.369Z,29.80
2018-04-27T13:45:13.623Z,27.60
2018-04-27T13:50:16.879Z,24.20
2018-04-27T13:55:20.143Z,25.50
2018-04-27T14:00:23.401Z,24.40
2018-04-27T14:05:26.652Z,25.80
2018-04-27T14:10:29.891Z,24.10
2018-04-27T14:15:33.700Z,24.70
2018-04-27T14:20:37.715Z,25.50
2018-04-27T14:25:40.978Z,25.50
2018-04-27T14:30:44.237Z,26.10
2018-04-27T14:35:48.267Z,25.00
2018-04-27T14:40:51.541Z,25.00
2018-04-27T14:45:54.820Z,24.50
2018-04-27T14:50:58.068Z,23.90
2018-04-27T14:56:02.122Z,25.40
2018-04-27T15:01:05.430Z,25.30
2018-04-27T15:06:08.701Z,25.50
2018-04-27T15:11:11.971Z,24.80
2018-04-27T15:16:15.246Z,26.90
2018-04-27T15:21:19.318Z,28.90
2018-04-27T15:26:22.593Z,28.80
2018-04-27T15:31:26.612Z,27.40
2018-04-27T15:36:30.002Z,27.30
2018-04-27T15:41:33.253Z,28.40
2018-04-27T15:46:36.540Z,28.60
2018-04-27T15:51:40.598Z,26.30
2018-04-27T15:56:43.970Z,26.20
2018-04-27T16:01:48.930Z,27.60
2018-04-27T16:06:53.079Z,30.10
2018-04-27T16:11:56.378Z,30.10
2018-04-27T16:17:00.391Z,30.00
2018-04-27T16:22:03.671Z,29.50
2018-04-27T16:27:07.254Z,31.00
2018-04-27T16:32:10.519Z,35.00
2018-04-27T16:37:13.803Z,33.30
2018-04-27T16:42:17.076Z,33.30
2018-04-27T16:47:20.337Z,33.00
2018-04-27T16:52:23.793Z,34.00
2018-04-27T16:57:27.058Z,31.20
2018-04-27T17:02:31.148Z,34.00
2018-04-27T17:07:34.573Z,34.00
2018-04-27T17:12:37.834Z,30.50
2018-04-27T17:17:41.940Z,31.80
2018-04-27T17:22:45.309Z,31.80
2018-04-27T17:27:48.512Z,33.30
2018-04-27T17:32:51.788Z,31.60
2018-04-27T17:37:55.032Z,34.10
2018-04-27T17:42:58.300Z,33.60
2018-04-27T17:48:02.440Z,34.50
2018-04-27T17:53:05.651Z,34.50
2018-04-27T17:58:08.891Z,38.00
2018-04-27T18:03:12.173Z,37.90
2018-04-27T18:08:15.471Z,36.50
2018-04-27T18:13:18.738Z,36.00
2018-04-27T18:18:22.171Z,37.40
2018-04-27T18:23:25.480Z,35.50
2018-04-27T18:28:29.516Z,38.20
2018-04-27T18:33:32.805Z,38.10
2018-04-27T18:38:36.894Z,39.90
2018-04-27T18:43:40.176Z,39.80
2018-04-27T18:48:43.428Z,40.00
2018-04-27T18:53:46.730Z,39.90
2018-04-27T18:58:55.679Z,39.10
2018-04-27T19:04:01.205Z,40.40
2018-04-27T19:09:04.470Z,40.20
2018-04-27T19:14:08.495Z,40.40
2018-04-27T19:19:12.684Z,41.00
2018-04-27T19:24:15.999Z,40.30
2018-04-27T19:29:19.271Z,40.10
2018-04-27T19:34:22.569Z,40.40
2018-04-27T19:39:25.887Z,40.30
2018-04-27T19:44:29.919Z,42.30
2018-04-27T19:49:33.215Z,41.80
2018-04-27T19:54:36.527Z,42.80
2018-04-27T19:59:39.809Z,44.90
2018-04-27T20:04:43.859Z,47.60
2018-04-27T20:09:50.623Z,47.50
2018-04-27T20:14:53.894Z,47.00
2018-04-27T20:19:57.200Z,47.00
2018-04-27T20:25:01.494Z,47.10
2018-04-27T20:30:05.963Z,46.90
2018-04-27T20:35:10.908Z,47.60
2018-04-27T20:40:14.971Z,47.90
2018-04-27T20:45:21.125Z,48.90
2018-04-27T20:50:27.215Z,49.60
2018-04-27T20:55:31.361Z,49.70
2018-04-27T21:00:34.624Z,49.40
2018-04-27T21:05:37.879Z,50.10
2018-04-27T21:10:41.244Z,51.10
2018-04-27T21:15:44.524Z,50.60
2018-04-27T21:20:47.843Z,48.80
2018-04-27T21:25:51.919Z,48.80
2018-04-27T21:30:55.182Z,49.10
2018-04-27T21:36:00.282Z,53.30
2018-04-27T21:46:34.202Z,55.20
2018-04-27T21:51:37.467Z,55.80
2018-04-27T21:56:56.939Z,55.30
2018-04-27T22:02:00.518Z,55.30
2018-04-27T22:07:05.493Z,56.00
2018-04-27T22:12:08.764Z,56.40
2018-04-27T22:17:24.580Z,56.60
2018-04-27T22:22:27.905Z,55.60
2018-04-27T22:27:31.163Z,56.20
2018-04-27T22:32:36.900Z,56.60
2018-04-27T22:37:42.562Z,58.50
2018-04-27T22:42:50.383Z,58.40
2018-04-27T22:48:29.299Z,58.50
2018-04-27T22:53:37.028Z,59.40
2018-04-27T22:58:40.327Z,60.10
2018-04-27T23:03:44.336Z,59.40
2018-04-27T23:08:49.281Z,60.00
2018-04-27T23:14:06.341Z,60.50
2018-04-27T23:19:10.383Z,60.00
2018-04-27T23:24:13.723Z,60.00
2018-04-27T23:29:16.979Z,59.40
2018-04-27T23:34:21.147Z,60.40
2018-04-27T23:39:25.175Z,60.50
2018-04-27T23:44:28.429Z,60.50
2018-04-27T23:49:31.687Z,61.00
2018-04-27T23:54:34.940Z,61.40
2018-04-27T23:59:42.691Z,60.80
